sensor_id;sensor_type;location;lat;lon;timestamp;temperature;humidity
58339;DHT22;68636;52.704;6.536;2023-07-31T00:01:11;15.70;99.90
58339;DHT22;68636;52.704;6.536;2023-07-31T00:03:36;15.60;99.90
58339;DHT22;68636;52.704;6.536;2023-07-31T00:06:02;15.60;99.90
58339;DHT22;68636;52.704;6.536;2023-07-31T00:08:28;15.60;99.90
58339;DHT22;68636;52.704;6.536;2023-07-31T00:10:54;15.60;99.90
58339;DHT22;68636;52.704;6.536;2023-07-31T00:13:20;15.60;99.90
58339;DHT22;68636;52.704;6.536;2023-07-31T00:15:45;15.50;99.90
58339;DHT22;68636;52.704;6.536;2023-07-31T00:18:11;15.50;99.90
58339;DHT22;68636;52.704;6.536;2023-07-31T00:20:37;15.50;99.90
58339;DHT22;68636;52.704;6.536;2023-07-31T00:23:02;15.50;99.90
58339;DHT22;68636;52.704;6.536;2023-07-31T00:25:28;15.50;99.90
58339;DHT22;68636;52.704;6.536;2023-07-31T00:27:54;15.50;99.90
58339;DHT22;68636;52.704;6.536;2023-07-31T00:30:19;15.50;99.90
58339;DHT22;68636;52.704;6.536;2023-07-31T00:32:45;15.50;99.90
58339;DHT22;68636;52.704;6.536;2023-07-31T00:35:11;15.50;99.90
58339;DHT22;68636;52.704;6.536;2023-07-31T00:37:37;15.40;99.90
58339;DHT22;68636;52.704;6.536;2023-07-31T00:40:02;15.40;99.90
58339;DHT22;68636;52.704;6.536;2023-07-31T00:42:29;15.40;99.90
58339;DHT22;68636;52.704;6.536;2023-07-31T00:44:54;15.40;99.90
58339;DHT22;68636;52.704;6.536;2023-07-31T00:47:20;15.40;99.90
58339;DHT22;68636;52.704;6.536;2023-07-31T00:49:46;15.40;99.90
58339;DHT22;68636;52.704;6.536;2023-07-31T00:52:12;15.40;99.90
58339;DHT22;68636;52.704;6.536;2023-07-31T00:54:38;15.30;99.90
58339;DHT22;68636;52.704;6.536;2023-07-31T00:57:04;15.30;99.90
58339;DHT22;68636;52.704;6.536;2023-07-31T00:59:30;15.30;99.90
58339;DHT22;68636;52.704;6.536;2023-07-31T01:01:56;15.20;99.90
58339;DHT22;68636;52.704;6.536;2023-07-31T01:04:22;15.20;99.90
58339;DHT22;68636;52.704;6.536;2023-07-31T01:12:09;15.20;99.90
58339;DHT22;68636;52.704;6.536;2023-07-31T01:14:38;15.20;99.90
58339;DHT22;68636;52.704;6.536;2023-07-31T01:17:04;15.10;99.90
58339;DHT22;68636;52.704;6.536;2023-07-31T01:19:30;15.10;99.90
58339;DHT22;68636;52.704;6.536;2023-07-31T01:22:29;15.10;99.90
58339;DHT22;68636;52.704;6.536;2023-07-31T01:25:43;15.20;99.90
58339;DHT22;68636;52.704;6.536;2023-07-31T01:28:22;15.10;99.90
58339;DHT22;68636;52.704;6.536;2023-07-31T01:30:50;15.20;99.90
58339;DHT22;68636;52.704;6.536;2023-07-31T01:33:17;15.20;99.90
58339;DHT22;68636;52.704;6.536;2023-07-31T01:35:45;15.20;99.90
58339;DHT22;68636;52.704;6.536;2023-07-31T01:38:11;15.20;99.90
58339;DHT22;68636;52.704;6.536;2023-07-31T01:40:37;15.10;99.90
58339;DHT22;68636;52.704;6.536;2023-07-31T01:43:03;15.10;99.90
58339;DHT22;68636;52.704;6.536;2023-07-31T01:45:29;15.20;99.90
58339;DHT22;68636;52.704;6.536;2023-07-31T01:47:54;15.20;99.90
58339;DHT22;68636;52.704;6.536;2023-07-31T01:50:20;15.20;99.90
58339;DHT22;68636;52.704;6.536;2023-07-31T01:52:46;15.20;99.90
58339;DHT22;68636;52.704;6.536;2023-07-31T01:55:11;15.20;99.90
58339;DHT22;68636;52.704;6.536;2023-07-31T01:57:37;15.20;99.90
58339;DHT22;68636;52.704;6.536;2023-07-31T02:00:03;15.20;99.90
58339;DHT22;68636;52.704;6.536;2023-07-31T02:02:29;15.20;99.90
58339;DHT22;68636;52.704;6.536;2023-07-31T02:04:55;15.30;99.90
58339;DHT22;68636;52.704;6.536;2023-07-31T02:07:21;15.30;99.90
58339;DHT22;68636;52.704;6.536;2023-07-31T02:09:46;15.30;99.90
58339;DHT22;68636;52.704;6.536;2023-07-31T02:12:13;15.30;99.90
58339;DHT22;68636;52.704;6.536;2023-07-31T02:14:40;15.30;99.90
58339;DHT22;68636;52.704;6.536;2023-07-31T02:17:06;15.30;99.90
58339;DHT22;68636;52.704;6.536;2023-07-31T02:19:32;15.40;99.90
58339;DHT22;68636;52.704;6.536;2023-07-31T02:21:57;15.40;99.90
58339;DHT22;68636;52.704;6.536;2023-07-31T02:24:24;15.40;99.90
58339;DHT22;68636;52.704;6.536;2023-07-31T02:26:50;15.40;99.90
58339;DHT22;68636;52.704;6.536;2023-07-31T02:29:15;15.40;99.90
58339;DHT22;68636;52.704;6.536;2023-07-31T02:31:41;15.50;99.90
58339;DHT22;68636;52.704;6.536;2023-07-31T02:34:07;15.50;99.90
58339;DHT22;68636;52.704;6.536;2023-07-31T02:36:33;15.50;99.90
58339;DHT22;68636;52.704;6.536;2023-07-31T02:38:58;15.50;99.90
58339;DHT22;68636;52.704;6.536;2023-07-31T02:41:24;15.60;99.90
58339;DHT22;68636;52.704;6.536;2023-07-31T02:43:50;15.60;99.90
58339;DHT22;68636;52.704;6.536;2023-07-31T02:46:15;15.60;99.90
58339;DHT22;68636;52.704;6.536;2023-07-31T02:48:41;15.60;99.90
58339;DHT22;68636;52.704;6.536;2023-07-31T02:51:07;15.60;99.90
58339;DHT22;68636;52.704;6.536;2023-07-31T02:53:32;15.60;99.90
58339;DHT22;68636;52.704;6.536;2023-07-31T02:55:58;15.70;99.90
58339;DHT22;68636;52.704;6.536;2023-07-31T02:58:24;15.70;99.90
58339;DHT22;68636;52.704;6.536;2023-07-31T03:00:49;15.70;99.90
58339;DHT22;68636;52.704;6.536;2023-07-31T03:03:15;15.70;99.90
58339;DHT22;68636;52.704;6.536;2023-07-31T03:05:41;15.70;99.90
58339;DHT22;68636;52.704;6.536;2023-07-31T03:08:06;15.70;99.90
58339;DHT22;68636;52.704;6.536;2023-07-31T03:10:32;15.60;99.90
58339;DHT22;68636;52.704;6.536;2023-07-31T03:12:58;15.70;99.90
58339;DHT22;68636;52.704;6.536;2023-07-31T03:15:23;15.70;99.90
58339;DHT22;68636;52.704;6.536;2023-07-31T03:17:49;15.70;99.90
58339;DHT22;68636;52.704;6.536;2023-07-31T03:20:15;15.70;99.90
58339;DHT22;68636;52.704;6.536;2023-07-31T03:22:41;15.70;99.90
58339;DHT22;68636;52.704;6.536;2023-07-31T03:25:07;15.70;99.90
58339;DHT22;68636;52.704;6.536;2023-07-31T03:27:32;15.70;99.90
58339;DHT22;68636;52.704;6.536;2023-07-31T03:29:59;15.70;99.90
58339;DHT22;68636;52.704;6.536;2023-07-31T03:32:25;15.70;99.90
58339;DHT22;68636;52.704;6.536;2023-07-31T03:34:50;15.80;99.90
58339;DHT22;68636;52.704;6.536;2023-07-31T03:37:16;15.80;99.90
58339;DHT22;68636;52.704;6.536;2023-07-31T03:39:42;15.80;99.90
58339;DHT22;68636;52.704;6.536;2023-07-31T03:42:07;15.80;99.90
58339;DHT22;68636;52.704;6.536;2023-07-31T03:44:33;15.90;99.90
58339;DHT22;68636;52.704;6.536;2023-07-31T03:46:59;15.80;99.90
58339;DHT22;68636;52.704;6.536;2023-07-31T03:49:24;15.80;99.90
58339;DHT22;68636;52.704;6.536;2023-07-31T03:51:50;15.90;99.90
58339;DHT22;68636;52.704;6.536;2023-07-31T03:54:16;15.90;99.90
58339;DHT22;68636;52.704;6.536;2023-07-31T03:56:41;15.90;99.90
58339;DHT22;68636;52.704;6.536;2023-07-31T03:59:07;15.80;99.90
58339;DHT22;68636;52.704;6.536;2023-07-31T04:01:33;15.90;99.90
58339;DHT22;68636;52.704;6.536;2023-07-31T04:03:59;15.90;99.90
58339;DHT22;68636;52.704;6.536;2023-07-31T04:06:24;15.90;99.90
58339;DHT22;68636;52.704;6.536;2023-07-31T04:08:50;15.90;99.90
58339;DHT22;68636;52.704;6.536;2023-07-31T04:11:16;15.90;99.90
58339;DHT22;68636;52.704;6.536;2023-07-31T04:13:42;16.00;99.90
58339;DHT22;68636;52.704;6.536;2023-07-31T04:16:08;16.00;99.90
58339;DHT22;68636;52.704;6.536;2023-07-31T04:18:33;16.00;99.90
58339;DHT22;68636;52.704;6.536;2023-07-31T04:20:59;16.00;99.90
58339;DHT22;68636;52.704;6.536;2023-07-31T04:23:26;16.10;99.90
58339;DHT22;68636;52.704;6.536;2023-07-31T04:25:52;16.00;99.90
58339;DHT22;68636;52.704;6.536;2023-07-31T04:28:18;16.10;99.90
58339;DHT22;68636;52.704;6.536;2023-07-31T04:30:44;16.00;99.90
58339;DHT22;68636;52.704;6.536;2023-07-31T04:33:10;16.10;99.90
58339;DHT22;68636;52.704;6.536;2023-07-31T04:35:35;16.10;99.90
58339;DHT22;68636;52.704;6.536;2023-07-31T04:38:01;16.10;99.90
58339;DHT22;68636;52.704;6.536;2023-07-31T04:40:27;16.10;99.90
58339;DHT22;68636;52.704;6.536;2023-07-31T04:42:53;16.10;99.90
58339;DHT22;68636;52.704;6.536;2023-07-31T04:45:18;16.10;99.90
58339;DHT22;68636;52.704;6.536;2023-07-31T04:47:44;16.10;99.90
58339;DHT22;68636;52.704;6.536;2023-07-31T04:50:10;16.20;99.90
58339;DHT22;68636;52.704;6.536;2023-07-31T04:52:36;16.20;99.90
58339;DHT22;68636;52.704;6.536;2023-07-31T04:55:01;16.20;99.90
58339;DHT22;68636;52.704;6.536;2023-07-31T04:57:27;16.20;99.90
58339;DHT22;68636;52.704;6.536;2023-07-31T04:59:53;16.20;99.90
58339;DHT22;68636;52.704;6.536;2023-07-31T05:02:18;16.30;99.90
58339;DHT22;68636;52.704;6.536;2023-07-31T05:04:44;16.20;99.90
58339;DHT22;68636;52.704;6.536;2023-07-31T05:07:10;16.30;99.90
58339;DHT22;68636;52.704;6.536;2023-07-31T05:09:36;16.30;99.90
58339;DHT22;68636;52.704;6.536;2023-07-31T05:12:01;16.30;99.90
58339;DHT22;68636;52.704;6.536;2023-07-31T05:14:27;16.30;99.90
58339;DHT22;68636;52.704;6.536;2023-07-31T05:16:53;16.30;99.90
58339;DHT22;68636;52.704;6.536;2023-07-31T05:19:19;16.30;99.90
58339;DHT22;68636;52.704;6.536;2023-07-31T05:21:44;16.40;99.90
58339;DHT22;68636;52.704;6.536;2023-07-31T05:24:10;16.40;99.90
58339;DHT22;68636;52.704;6.536;2023-07-31T05:26:36;16.40;99.90
58339;DHT22;68636;52.704;6.536;2023-07-31T05:29:03;16.40;99.90
58339;DHT22;68636;52.704;6.536;2023-07-31T05:31:29;16.40;99.90
58339;DHT22;68636;52.704;6.536;2023-07-31T05:33:55;16.50;99.90
58339;DHT22;68636;52.704;6.536;2023-07-31T05:36:20;16.50;99.90
58339;DHT22;68636;52.704;6.536;2023-07-31T05:38:46;16.50;99.90
58339;DHT22;68636;52.704;6.536;2023-07-31T05:41:12;16.50;99.90
58339;DHT22;68636;52.704;6.536;2023-07-31T05:43:38;16.50;99.90
58339;DHT22;68636;52.704;6.536;2023-07-31T05:46:04;16.50;99.90
58339;DHT22;68636;52.704;6.536;2023-07-31T05:48:30;16.60;99.90
58339;DHT22;68636;52.704;6.536;2023-07-31T05:50:56;16.50;99.90
58339;DHT22;68636;52.704;6.536;2023-07-31T05:53:22;16.60;99.90
58339;DHT22;68636;52.704;6.536;2023-07-31T05:55:47;16.60;99.90
58339;DHT22;68636;52.704;6.536;2023-07-31T05:58:13;16.60;99.90
58339;DHT22;68636;52.704;6.536;2023-07-31T06:00:39;16.60;99.90
58339;DHT22;68636;52.704;6.536;2023-07-31T06:03:04;16.60;99.90
58339;DHT22;68636;52.704;6.536;2023-07-31T06:05:30;16.70;99.90
58339;DHT22;68636;52.704;6.536;2023-07-31T06:07:57;16.60;99.90
58339;DHT22;68636;52.704;6.536;2023-07-31T06:10:23;16.60;99.90
58339;DHT22;68636;52.704;6.536;2023-07-31T06:12:48;16.70;99.90
58339;DHT22;68636;52.704;6.536;2023-07-31T06:15:14;16.70;99.90
58339;DHT22;68636;52.704;6.536;2023-07-31T06:17:40;16.70;99.90
58339;DHT22;68636;52.704;6.536;2023-07-31T06:20:07;16.70;99.90
58339;DHT22;68636;52.704;6.536;2023-07-31T06:22:32;16.80;99.90
58339;DHT22;68636;52.704;6.536;2023-07-31T06:24:59;16.80;99.90
58339;DHT22;68636;52.704;6.536;2023-07-31T06:27:24;16.80;99.90
58339;DHT22;68636;52.704;6.536;2023-07-31T06:29:50;16.80;99.90
58339;DHT22;68636;52.704;6.536;2023-07-31T06:32:16;16.80;99.90
58339;DHT22;68636;52.704;6.536;2023-07-31T06:34:42;16.80;99.90
58339;DHT22;68636;52.704;6.536;2023-07-31T06:37:07;16.70;99.90
58339;DHT22;68636;52.704;6.536;2023-07-31T06:39:33;16.70;99.90
58339;DHT22;68636;52.704;6.536;2023-07-31T06:41:59;16.70;99.90
58339;DHT22;68636;52.704;6.536;2023-07-31T06:44:24;16.70;99.90
58339;DHT22;68636;52.704;6.536;2023-07-31T06:46:51;16.60;99.90
58339;DHT22;68636;52.704;6.536;2023-07-31T06:49:16;16.60;99.90
58339;DHT22;68636;52.704;6.536;2023-07-31T06:51:42;16.60;99.90
58339;DHT22;68636;52.704;6.536;2023-07-31T06:54:10;16.60;99.90
58339;DHT22;68636;52.704;6.536;2023-07-31T06:56:36;16.60;99.90
58339;DHT22;68636;52.704;6.536;2023-07-31T06:59:03;16.60;99.90
58339;DHT22;68636;52.704;6.536;2023-07-31T07:01:28;16.50;99.90
58339;DHT22;68636;52.704;6.536;2023-07-31T07:03:54;16.60;99.90
58339;DHT22;68636;52.704;6.536;2023-07-31T07:06:21;16.60;99.90
58339;DHT22;68636;52.704;6.536;2023-07-31T07:08:48;16.70;99.90
58339;DHT22;68636;52.704;6.536;2023-07-31T07:11:13;16.70;99.90
58339;DHT22;68636;52.704;6.536;2023-07-31T07:13:39;16.80;99.90
58339;DHT22;68636;52.704;6.536;2023-07-31T07:16:05;16.80;99.90
58339;DHT22;68636;52.704;6.536;2023-07-31T07:18:31;16.90;99.90
58339;DHT22;68636;52.704;6.536;2023-07-31T07:20:57;17.00;99.90
58339;DHT22;68636;52.704;6.536;2023-07-31T07:23:24;17.10;99.90
58339;DHT22;68636;52.704;6.536;2023-07-31T07:25:50;17.20;99.90
58339;DHT22;68636;52.704;6.536;2023-07-31T07:28:16;17.20;99.90
58339;DHT22;68636;52.704;6.536;2023-07-31T07:30:42;17.20;99.90
58339;DHT22;68636;52.704;6.536;2023-07-31T07:33:08;17.20;99.90
58339;DHT22;68636;52.704;6.536;2023-07-31T07:35:35;17.10;99.90
58339;DHT22;68636;52.704;6.536;2023-07-31T07:38:02;17.10;99.90
58339;DHT22;68636;52.704;6.536;2023-07-31T07:40:28;17.10;99.90
58339;DHT22;68636;52.704;6.536;2023-07-31T07:42:53;17.10;99.90
58339;DHT22;68636;52.704;6.536;2023-07-31T07:45:19;17.00;99.90
58339;DHT22;68636;52.704;6.536;2023-07-31T07:47:45;17.00;99.90
58339;DHT22;68636;52.704;6.536;2023-07-31T07:50:11;17.10;99.90
58339;DHT22;68636;52.704;6.536;2023-07-31T07:52:36;17.10;99.90
58339;DHT22;68636;52.704;6.536;2023-07-31T07:55:02;17.20;99.90
58339;DHT22;68636;52.704;6.536;2023-07-31T07:57:29;17.20;99.90
58339;DHT22;68636;52.704;6.536;2023-07-31T07:59:54;17.10;99.90
58339;DHT22;68636;52.704;6.536;2023-07-31T08:02:22;17.10;99.90
58339;DHT22;68636;52.704;6.536;2023-07-31T08:04:47;17.10;99.90
58339;DHT22;68636;52.704;6.536;2023-07-31T08:07:13;17.10;99.90
58339;DHT22;68636;52.704;6.536;2023-07-31T08:09:39;17.10;99.90
58339;DHT22;68636;52.704;6.536;2023-07-31T08:12:06;17.20;99.90
58339;DHT22;68636;52.704;6.536;2023-07-31T08:14:32;17.20;99.90
58339;DHT22;68636;52.704;6.536;2023-07-31T08:16:57;17.30;99.90
58339;DHT22;68636;52.704;6.536;2023-07-31T08:19:23;17.30;99.90
58339;DHT22;68636;52.704;6.536;2023-07-31T08:21:49;17.40;99.90
58339;DHT22;68636;52.704;6.536;2023-07-31T08:24:15;17.50;99.90
58339;DHT22;68636;52.704;6.536;2023-07-31T08:26:41;17.60;99.90
58339;DHT22;68636;52.704;6.536;2023-07-31T08:29:06;17.60;99.90
58339;DHT22;68636;52.704;6.536;2023-07-31T08:31:32;17.60;99.90
58339;DHT22;68636;52.704;6.536;2023-07-31T08:33:58;17.60;99.90
58339;DHT22;68636;52.704;6.536;2023-07-31T08:36:23;17.60;99.90
58339;DHT22;68636;52.704;6.536;2023-07-31T08:38:49;17.60;99.90
58339;DHT22;68636;52.704;6.536;2023-07-31T08:41:15;17.70;99.90
58339;DHT22;68636;52.704;6.536;2023-07-31T08:43:45;17.70;99.90
58339;DHT22;68636;52.704;6.536;2023-07-31T08:46:11;17.70;99.90
58339;DHT22;68636;52.704;6.536;2023-07-31T08:48:39;17.60;99.90
58339;DHT22;68636;52.704;6.536;2023-07-31T08:51:06;17.60;99.90
58339;DHT22;68636;52.704;6.536;2023-07-31T08:53:32;17.60;99.90
58339;DHT22;68636;52.704;6.536;2023-07-31T08:55:59;17.50;99.90
58339;DHT22;68636;52.704;6.536;2023-07-31T08:58:25;17.50;99.90
58339;DHT22;68636;52.704;6.536;2023-07-31T09:00:54;17.50;99.90
58339;DHT22;68636;52.704;6.536;2023-07-31T09:03:22;17.60;99.90
58339;DHT22;68636;52.704;6.536;2023-07-31T09:05:48;17.50;99.90
58339;DHT22;68636;52.704;6.536;2023-07-31T09:08:18;17.50;99.90
58339;DHT22;68636;52.704;6.536;2023-07-31T09:10:45;17.60;99.90
58339;DHT22;68636;52.704;6.536;2023-07-31T09:13:16;17.70;99.90
58339;DHT22;68636;52.704;6.536;2023-07-31T09:15:44;17.70;99.90
58339;DHT22;68636;52.704;6.536;2023-07-31T09:18:11;17.80;99.90
58339;DHT22;68636;52.704;6.536;2023-07-31T09:20:37;17.90;99.90
58339;DHT22;68636;52.704;6.536;2023-07-31T09:23:10;18.00;99.90
58339;DHT22;68636;52.704;6.536;2023-07-31T09:25:36;18.00;99.90
58339;DHT22;68636;52.704;6.536;2023-07-31T09:28:07;18.00;99.90
58339;DHT22;68636;52.704;6.536;2023-07-31T09:30:51;18.00;99.90
58339;DHT22;68636;52.704;6.536;2023-07-31T09:33:18;18.20;99.90
58339;DHT22;68636;52.704;6.536;2023-07-31T09:35:44;18.10;99.90
58339;DHT22;68636;52.704;6.536;2023-07-31T09:38:12;18.20;99.90
58339;DHT22;68636;52.704;6.536;2023-07-31T09:40:39;18.20;99.90
58339;DHT22;68636;52.704;6.536;2023-07-31T09:43:10;18.20;99.90
58339;DHT22;68636;52.704;6.536;2023-07-31T09:45:38;18.20;99.90
58339;DHT22;68636;52.704;6.536;2023-07-31T09:48:11;18.30;99.90
58339;DHT22;68636;52.704;6.536;2023-07-31T09:50:43;18.30;99.90
58339;DHT22;68636;52.704;6.536;2023-07-31T09:53:09;18.30;99.90
58339;DHT22;68636;52.704;6.536;2023-07-31T09:55:36;18.40;99.90
58339;DHT22;68636;52.704;6.536;2023-07-31T09:58:07;18.40;99.90
58339;DHT22;68636;52.704;6.536;2023-07-31T10:00:34;18.50;99.90
58339;DHT22;68636;52.704;6.536;2023-07-31T10:03:10;18.50;99.90
58339;DHT22;68636;52.704;6.536;2023-07-31T10:05:39;18.60;99.90
58339;DHT22;68636;52.704;6.536;2023-07-31T10:08:07;18.70;99.90
58339;DHT22;68636;52.704;6.536;2023-07-31T10:10:36;18.70;99.90
58339;DHT22;68636;52.704;6.536;2023-07-31T10:13:02;18.80;99.90
58339;DHT22;68636;52.704;6.536;2023-07-31T10:15:29;18.90;99.90
58339;DHT22;68636;52.704;6.536;2023-07-31T10:17:56;18.90;99.90
58339;DHT22;68636;52.704;6.536;2023-07-31T10:20:23;18.90;99.90
58339;DHT22;68636;52.704;6.536;2023-07-31T10:22:49;18.90;99.90
58339;DHT22;68636;52.704;6.536;2023-07-31T10:25:15;18.80;99.90
58339;DHT22;68636;52.704;6.536;2023-07-31T10:27:42;18.90;99.90
58339;DHT22;68636;52.704;6.536;2023-07-31T10:30:12;18.90;99.90
58339;DHT22;68636;52.704;6.536;2023-07-31T10:32:41;19.00;99.90
58339;DHT22;68636;52.704;6.536;2023-07-31T10:35:08;19.10;99.90
58339;DHT22;68636;52.704;6.536;2023-07-31T10:37:41;19.20;99.90
58339;DHT22;68636;52.704;6.536;2023-07-31T10:40:18;19.40;99.90
58339;DHT22;68636;52.704;6.536;2023-07-31T10:45:27;19.70;99.90
58339;DHT22;68636;52.704;6.536;2023-07-31T10:48:15;19.70;99.90
58339;DHT22;68636;52.704;6.536;2023-07-31T10:50:55;19.70;99.90
58339;DHT22;68636;52.704;6.536;2023-07-31T10:53:40;19.70;99.90
58339;DHT22;68636;52.704;6.536;2023-07-31T10:56:08;19.80;99.90
58339;DHT22;68636;52.704;6.536;2023-07-31T10:58:34;19.90;99.90
58339;DHT22;68636;52.704;6.536;2023-07-31T11:01:02;19.90;99.90
58339;DHT22;68636;52.704;6.536;2023-07-31T11:03:46;19.80;99.90
58339;DHT22;68636;52.704;6.536;2023-07-31T11:06:13;19.70;99.90
58339;DHT22;68636;52.704;6.536;2023-07-31T11:08:44;19.60;99.90
58339;DHT22;68636;52.704;6.536;2023-07-31T11:11:14;19.60;99.90
58339;DHT22;68636;52.704;6.536;2023-07-31T11:13:49;19.50;99.90
58339;DHT22;68636;52.704;6.536;2023-07-31T11:16:16;19.40;99.90
58339;DHT22;68636;52.704;6.536;2023-07-31T11:18:44;19.30;99.90
58339;DHT22;68636;52.704;6.536;2023-07-31T11:21:14;19.40;99.90
58339;DHT22;68636;52.704;6.536;2023-07-31T11:23:41;19.40;99.90
58339;DHT22;68636;52.704;6.536;2023-07-31T11:26:07;19.50;99.90
58339;DHT22;68636;52.704;6.536;2023-07-31T11:28:35;19.60;99.90
58339;DHT22;68636;52.704;6.536;2023-07-31T11:31:01;19.60;99.90
58339;DHT22;68636;52.704;6.536;2023-07-31T11:33:27;19.60;99.90
58339;DHT22;68636;52.704;6.536;2023-07-31T11:35:53;19.60;99.90
58339;DHT22;68636;52.704;6.536;2023-07-31T11:38:29;19.60;99.90
58339;DHT22;68636;52.704;6.536;2023-07-31T11:40:58;19.50;99.90
58339;DHT22;68636;52.704;6.536;2023-07-31T11:43:24;19.50;99.90
58339;DHT22;68636;52.704;6.536;2023-07-31T11:45:52;19.30;99.90
58339;DHT22;68636;52.704;6.536;2023-07-31T11:48:23;19.10;99.90
58339;DHT22;68636;52.704;6.536;2023-07-31T11:50:50;18.80;99.90
58339;DHT22;68636;52.704;6.536;2023-07-31T11:53:38;18.60;99.90
58339;DHT22;68636;52.704;6.536;2023-07-31T11:56:06;18.50;99.90
58339;DHT22;68636;52.704;6.536;2023-07-31T11:58:34;18.50;99.90
58339;DHT22;68636;52.704;6.536;2023-07-31T12:01:01;18.60;99.90
58339;DHT22;68636;52.704;6.536;2023-07-31T12:03:27;18.70;99.90
58339;DHT22;68636;52.704;6.536;2023-07-31T12:05:53;18.80;99.90
58339;DHT22;68636;52.704;6.536;2023-07-31T12:08:24;18.80;99.90
58339;DHT22;68636;52.704;6.536;2023-07-31T12:10:51;19.00;99.90
58339;DHT22;68636;52.704;6.536;2023-07-31T12:13:22;19.20;99.90
58339;DHT22;68636;52.704;6.536;2023-07-31T12:15:48;19.40;99.90
58339;DHT22;68636;52.704;6.536;2023-07-31T12:18:19;19.60;99.90
58339;DHT22;68636;52.704;6.536;2023-07-31T12:20:53;19.60;99.90
58339;DHT22;68636;52.704;6.536;2023-07-31T12:23:21;19.50;99.90
58339;DHT22;68636;52.704;6.536;2023-07-31T12:28:28;19.30;99.90
58339;DHT22;68636;52.704;6.536;2023-07-31T12:30:57;19.20;99.90
58339;DHT22;68636;52.704;6.536;2023-07-31T12:33:34;19.10;99.90
58339;DHT22;68636;52.704;6.536;2023-07-31T12:36:01;19.00;99.90
58339;DHT22;68636;52.704;6.536;2023-07-31T12:38:27;19.10;99.90
58339;DHT22;68636;52.704;6.536;2023-07-31T12:40:53;19.20;99.90
58339;DHT22;68636;52.704;6.536;2023-07-31T12:43:19;19.40;99.90
58339;DHT22;68636;52.704;6.536;2023-07-31T12:45:44;19.60;99.90
58339;DHT22;68636;52.704;6.536;2023-07-31T12:48:10;19.70;99.90
58339;DHT22;68636;52.704;6.536;2023-07-31T12:50:36;19.80;99.90
58339;DHT22;68636;52.704;6.536;2023-07-31T12:53:02;19.80;99.90
58339;DHT22;68636;52.704;6.536;2023-07-31T12:55:29;19.70;99.90
58339;DHT22;68636;52.704;6.536;2023-07-31T12:57:55;19.60;99.90
58339;DHT22;68636;52.704;6.536;2023-07-31T13:00:21;19.50;99.90
58339;DHT22;68636;52.704;6.536;2023-07-31T13:02:47;19.30;99.90
58339;DHT22;68636;52.704;6.536;2023-07-31T13:05:13;19.40;99.90
58339;DHT22;68636;52.704;6.536;2023-07-31T13:07:39;19.50;99.90
58339;DHT22;68636;52.704;6.536;2023-07-31T13:10:06;19.70;99.90
58339;DHT22;68636;52.704;6.536;2023-07-31T13:12:32;19.80;99.90
58339;DHT22;68636;52.704;6.536;2023-07-31T13:14:58;20.00;99.90
58339;DHT22;68636;52.704;6.536;2023-07-31T13:17:23;20.10;99.90
58339;DHT22;68636;52.704;6.536;2023-07-31T13:19:49;20.30;99.90
58339;DHT22;68636;52.704;6.536;2023-07-31T13:22:15;20.30;99.90
58339;DHT22;68636;52.704;6.536;2023-07-31T13:24:41;20.30;99.90
58339;DHT22;68636;52.704;6.536;2023-07-31T13:27:07;20.30;99.90
58339;DHT22;68636;52.704;6.536;2023-07-31T13:29:32;20.20;99.90
58339;DHT22;68636;52.704;6.536;2023-07-31T13:31:58;20.20;99.90
58339;DHT22;68636;52.704;6.536;2023-07-31T13:34:24;20.10;99.90
58339;DHT22;68636;52.704;6.536;2023-07-31T13:36:50;20.20;99.90
58339;DHT22;68636;52.704;6.536;2023-07-31T13:39:15;20.30;99.90
58339;DHT22;68636;52.704;6.536;2023-07-31T13:41:41;20.30;99.90
58339;DHT22;68636;52.704;6.536;2023-07-31T13:44:07;20.30;99.90
58339;DHT22;68636;52.704;6.536;2023-07-31T13:46:33;20.40;99.90
58339;DHT22;68636;52.704;6.536;2023-07-31T13:48:59;20.30;99.90
58339;DHT22;68636;52.704;6.536;2023-07-31T13:51:25;20.30;99.90
58339;DHT22;68636;52.704;6.536;2023-07-31T13:53:51;20.30;99.90
58339;DHT22;68636;52.704;6.536;2023-07-31T13:56:17;20.30;99.90
58339;DHT22;68636;52.704;6.536;2023-07-31T13:58:43;20.30;99.90
58339;DHT22;68636;52.704;6.536;2023-07-31T14:01:08;20.40;99.90
58339;DHT22;68636;52.704;6.536;2023-07-31T14:03:34;20.40;99.90
58339;DHT22;68636;52.704;6.536;2023-07-31T14:06:00;20.40;99.90
58339;DHT22;68636;52.704;6.536;2023-07-31T14:08:26;20.40;99.90
58339;DHT22;68636;52.704;6.536;2023-07-31T14:10:51;20.40;99.90
58339;DHT22;68636;52.704;6.536;2023-07-31T14:13:17;20.40;99.90
58339;DHT22;68636;52.704;6.536;2023-07-31T14:15:43;20.40;99.90
58339;DHT22;68636;52.704;6.536;2023-07-31T14:18:09;20.50;99.90
58339;DHT22;68636;52.704;6.536;2023-07-31T14:20:35;20.50;99.90
58339;DHT22;68636;52.704;6.536;2023-07-31T14:23:02;20.60;99.90
58339;DHT22;68636;52.704;6.536;2023-07-31T14:25:28;20.70;99.90
58339;DHT22;68636;52.704;6.536;2023-07-31T14:27:53;20.80;99.90
58339;DHT22;68636;52.704;6.536;2023-07-31T14:30:19;20.80;99.90
58339;DHT22;68636;52.704;6.536;2023-07-31T14:32:46;20.80;99.90
58339;DHT22;68636;52.704;6.536;2023-07-31T14:35:11;20.80;99.90
58339;DHT22;68636;52.704;6.536;2023-07-31T14:37:39;20.80;99.90
58339;DHT22;68636;52.704;6.536;2023-07-31T14:40:06;20.80;99.90
58339;DHT22;68636;52.704;6.536;2023-07-31T14:42:32;20.80;99.90
58339;DHT22;68636;52.704;6.536;2023-07-31T14:44:58;20.80;99.90
58339;DHT22;68636;52.704;6.536;2023-07-31T14:47:24;20.80;99.90
58339;DHT22;68636;52.704;6.536;2023-07-31T14:49:50;20.80;99.90
58339;DHT22;68636;52.704;6.536;2023-07-31T14:52:15;20.80;99.90
58339;DHT22;68636;52.704;6.536;2023-07-31T14:54:41;20.80;99.90
58339;DHT22;68636;52.704;6.536;2023-07-31T14:57:08;20.70;99.90
58339;DHT22;68636;52.704;6.536;2023-07-31T14:59:34;20.70;99.90
58339;DHT22;68636;52.704;6.536;2023-07-31T15:02:00;20.60;99.90
58339;DHT22;68636;52.704;6.536;2023-07-31T15:04:26;20.50;99.90
58339;DHT22;68636;52.704;6.536;2023-07-31T15:06:52;20.50;99.90
58339;DHT22;68636;52.704;6.536;2023-07-31T15:09:18;20.30;99.90
58339;DHT22;68636;52.704;6.536;2023-07-31T15:11:44;20.30;99.90
58339;DHT22;68636;52.704;6.536;2023-07-31T15:14:09;20.30;99.90
58339;DHT22;68636;52.704;6.536;2023-07-31T15:16:35;20.20;99.90
58339;DHT22;68636;52.704;6.536;2023-07-31T15:19:01;20.20;99.90
58339;DHT22;68636;52.704;6.536;2023-07-31T15:21:27;20.10;99.90
58339;DHT22;68636;52.704;6.536;2023-07-31T15:23:52;20.10;99.90
58339;DHT22;68636;52.704;6.536;2023-07-31T15:26:18;20.10;99.90
58339;DHT22;68636;52.704;6.536;2023-07-31T15:28:50;20.00;99.90
58339;DHT22;68636;52.704;6.536;2023-07-31T15:31:15;19.90;99.90
58339;DHT22;68636;52.704;6.536;2023-07-31T15:33:41;19.80;99.90
58339;DHT22;68636;52.704;6.536;2023-07-31T15:36:07;19.70;99.90
58339;DHT22;68636;52.704;6.536;2023-07-31T15:38:33;19.60;99.90